LSZS/SMV METAR and TAF weather

Enter ICAO airport designator
Station Type Date Time Source
LSZS METAR 2018/12/18 19:50 UTC NOAA

LSZS 181950Z AUTO 20002KT CAVOK M13/M16 Q1022


Station Type Date Time Source
LSZS Decoded METAR 2018/12/18 19:50 UTC NOAA

Station name not available
Dec 18, 2018 - 02:50 PM EST / 2018.12.18 1950 UTC
Wind: from the SSW (200 degrees) at 2 MPH (2 KT):0
Visibility: greater than 7 mile(s):0
Temperature: 8 F (-13 C)
Dew Point: 3 F (-16 C)
Relative Humidity: 78%
Pressure (altimeter): 30.18 in. Hg (1022 hPa)
ob: LSZS 181950Z AUTO 20002KT CAVOK M13/M16 Q1022
cycle: 20

Station Type Date Time Source
LSZS TAF 2014/12/22 20:03 UTC NOAA

TAF
AMD LSZS 222054Z 2220/2224 CNL


Example: see airport list